Time;durP1;ratioP1;P1;durP2;ratioP2;P2;SDS_P1;SDS_P2;PMS_P1;PMS_P2;Temp;Humidity;BMP_temperature;BMP_pressure;BME280_temperature;BME280_humidity;BME280_pressure;Samples;Min_cycle;Max_cycle;Signal;HPM_P1;HPM_P2
2024/03/13 00:00:13;;;;;;;;;23.00;23.00;;;;;;;;5029625;28;45327;-79
2024/03/13 00:02:42;;;;;;;;;23.00;23.00;;;;;;;;5030830;28;45238;-79
2024/03/13 00:05:10;;;;;;;;;20.00;20.00;;;;;;;;5030607;28;45537;-80
2024/03/13 00:07:35;;;;;;;;;22.67;22.00;;;;;;;;5012143;28;48125;-80
2024/03/13 00:10:01;;;;;;;;;28.00;26.00;;;;;;;;5013714;28;45250;-79
2024/03/13 00:12:27;;;;;;;;;24.67;22.67;;;;;;;;5032149;28;45582;-79
2024/03/13 00:14:53;;;;;;;;;24.00;21.33;;;;;;;;5010327;28;46256;-79
2024/03/13 00:17:21;;;;;;;;;22.00;20.00;;;;;;;;5030151;28;46538;-80
2024/03/13 00:19:50;;;;;;;;;20.00;20.00;;;;;;;;5010194;28;46247;-79
2024/03/13 00:22:18;;;;;;;;;21.67;17.67;;;;;;;;5026164;28;45484;-79
2024/03/13 00:24:48;;;;;;;;;18.00;18.00;;;;;;;;5027428;28;45370;-79
2024/03/13 00:27:13;;;;;;;;;17.00;16.67;;;;;;;;5011937;28;47426;-79
2024/03/13 00:29:38;;;;;;;;;17.67;16.00;;;;;;;;5030454;28;45368;-79
2024/03/13 00:32:04;;;;;;;;;17.00;14.33;;;;;;;;5030197;28;45687;-79
2024/03/13 00:34:30;;;;;;;;;16.67;15.67;;;;;;;;5009667;28;46170;-79
2024/03/13 00:36:55;;;;;;;;;19.33;17.67;;;;;;;;5026513;28;46535;-79
2024/03/13 00:39:22;;;;;;;;;16.33;16.33;;;;;;;;5010184;28;45281;-79
2024/03/13 00:41:47;;;;;;;;;17.33;16.00;;;;;;;;5025041;28;45363;-79
2024/03/13 00:44:12;;;;;;;;;15.00;13.00;;;;;;;;5005176;28;46180;-79
2024/03/13 00:46:40;;;;;;;;;15.00;15.00;;;;;;;;5026458;28;46568;-79
2024/03/13 00:49:07;;;;;;;;;18.00;18.00;;;;;;;;5025679;28;45388;-79
2024/03/13 00:51:33;;;;;;;;;16.00;15.00;;;;;;;;5025008;28;45323;-79
2024/03/13 00:53:59;;;;;;;;;17.00;16.67;;;;;;;;5007842;28;45254;-79
2024/03/13 00:56:29;;;;;;;;;16.00;15.00;;;;;;;;5008514;28;46030;-79
2024/03/13 00:58:54;;;;;;;;;13.67;13.67;;;;;;;;5010923;28;45361;-79
2024/03/13 01:01:21;;;;;;;;;14.00;13.00;;;;;;;;5024316;28;45343;-79
2024/03/13 01:03:46;;;;;;;;;15.00;15.00;;;;;;;;5027046;28;45446;-79
2024/03/13 01:06:11;;;;;;;;;16.67;15.67;;;;;;;;5011165;28;48152;-79
2024/03/13 01:08:36;;;;;;;;;14.00;13.00;;;;;;;;5009923;28;45317;-79
2024/03/13 01:11:01;;;;;;;;;12.67;12.33;;;;;;;;5024788;28;45360;-79
2024/03/13 01:13:27;;;;;;;;;11.67;11.33;;;;;;;;5025179;28;45245;-80
2024/03/13 01:15:52;;;;;;;;;11.33;10.67;;;;;;;;5006548;28;47113;-79
2024/03/13 01:18:19;;;;;;;;;13.00;13.00;;;;;;;;5024396;28;45336;-79
2024/03/13 01:20:44;;;;;;;;;14.67;13.33;;;;;;;;5008437;28;45360;-80
2024/03/13 01:23:09;;;;;;;;;13.33;12.33;;;;;;;;5027841;28;45352;-79
2024/03/13 01:25:34;;;;;;;;;10.00;10.00;;;;;;;;5026986;28;46062;-80
2024/03/13 01:28:00;;;;;;;;;9.67;9.67;;;;;;;;5029249;28;45582;-79
2024/03/13 01:30:25;;;;;;;;;9.33;9.33;;;;;;;;5027397;28;45313;-79
2024/03/13 01:32:51;;;;;;;;;12.00;11.00;;;;;;;;5028163;28;45278;-79
2024/03/13 01:35:17;;;;;;;;;10.33;10.00;;;;;;;;5025568;28;45508;-79
2024/03/13 01:37:58;;;;;;;;;7.33;7.33;;;;;;;;5024607;28;45406;-80
2024/03/13 01:54:50;;;;;;;;;10.00;10.00;;;;;;;;5006417;28;45448;-78
2024/03/13 01:57:13;;;;;;;;;8.67;8.33;;;;;;;;5009720;28;45212;-80
2024/03/13 02:02:30;;;;;;;;;12.33;10.00;;;;;;;;4963795;28;45388;-79
2024/03/13 02:04:55;;;;;;;;;10.33;10.33;;;;;;;;5007849;28;45301;-79
2024/03/13 02:07:22;;;;;;;;;14.00;11.33;;;;;;;;4989708;28;48305;-79
2024/03/13 02:09:48;;;;;;;;;12.00;12.00;;;;;;;;4990773;28;45920;-79
2024/03/13 02:12:13;;;;;;;;;13.00;9.67;;;;;;;;5007623;28;45246;-79
2024/03/13 02:14:39;;;;;;;;;12.67;12.67;;;;;;;;4991109;28;46254;-80
2024/03/13 02:17:06;;;;;;;;;10.67;10.00;;;;;;;;5010247;28;46083;-79
2024/03/13 02:19:35;;;;;;;;;12.00;11.00;;;;;;;;4973500;28;45365;-80
2024/03/13 02:22:00;;;;;;;;;15.33;14.33;;;;;;;;5008619;28;45288;-79
2024/03/13 02:24:26;;;;;;;;;14.67;13.33;;;;;;;;4992011;28;45445;-79
2024/03/13 02:26:52;;;;;;;;;14.33;14.33;;;;;;;;5007051;28;45322;-79
2024/03/13 02:29:17;;;;;;;;;15.33;14.67;;;;;;;;4986827;28;45331;-80
2024/03/13 02:31:43;;;;;;;;;13.33;12.00;;;;;;;;5003307;28;45436;-79
2024/03/13 02:34:08;;;;;;;;;12.33;12.33;;;;;;;;4984190;28;47467;-80
2024/03/13 02:36:34;;;;;;;;;13.67;13.33;;;;;;;;4999703;28;46863;-79
2024/03/13 02:39:01;;;;;;;;;12.67;12.00;;;;;;;;4984004;28;45774;-79
2024/03/13 02:41:26;;;;;;;;;15.67;12.00;;;;;;;;4984213;28;45243;-79
2024/03/13 02:43:51;;;;;;;;;13.00;10.00;;;;;;;;5003518;28;45307;-79
2024/03/13 02:46:16;;;;;;;;;13.33;13.33;;;;;;;;5001565;28;45273;-79
2024/03/13 02:48:41;;;;;;;;;14.00;12.67;;;;;;;;4984147;28;45792;-79
2024/03/13 02:51:08;;;;;;;;;13.00;10.67;;;;;;;;5000913;28;45388;-79
2024/03/13 02:53:33;;;;;;;;;12.67;11.67;;;;;;;;4982780;28;46126;-79
2024/03/13 02:55:59;;;;;;;;;13.67;11.67;;;;;;;;5001997;28;45328;-80
2024/03/13 02:58:24;;;;;;;;;15.00;13.00;;;;;;;;5015202;28;45211;-79
2024/03/13 03:00:49;;;;;;;;;12.00;12.00;;;;;;;;5021771;28;45158;-79
2024/03/13 03:03:14;;;;;;;;;14.00;12.00;;;;;;;;5024286;28;45301;-79
2024/03/13 03:05:39;;;;;;;;;12.00;12.00;;;;;;;;5006669;28;47277;-79
2024/03/13 03:08:05;;;;;;;;;13.33;12.33;;;;;;;;4996369;28;45322;-80
2024/03/13 03:10:32;;;;;;;;;12.67;10.33;;;;;;;;5004409;28;45375;-79
2024/03/13 03:12:58;;;;;;;;;11.67;11.67;;;;;;;;4985946;28;47197;-79
2024/03/13 03:15:23;;;;;;;;;11.00;11.00;;;;;;;;5002899;28;46194;-79
2024/03/13 03:17:49;;;;;;;;;12.00;10.67;;;;;;;;5005683;28;45306;-79
2024/03/13 03:20:15;;;;;;;;;11.67;10.00;;;;;;;;5003968;28;45469;-79
2024/03/13 03:22:40;;;;;;;;;12.67;12.33;;;;;;;;5003987;28;45312;-79
2024/03/13 03:25:06;;;;;;;;;10.00;9.00;;;;;;;;4985783;28;47214;-80
2024/03/13 03:27:31;;;;;;;;;13.00;10.67;;;;;;;;4985499;28;45325;-79
2024/03/13 03:29:57;;;;;;;;;12.33;12.00;;;;;;;;4987559;28;45405;-79
2024/03/13 03:32:22;;;;;;;;;11.00;10.00;;;;;;;;5005902;28;45184;-79
2024/03/13 03:34:47;;;;;;;;;9.33;9.33;;;;;;;;4986674;28;48435;-80
2024/03/13 03:37:14;;;;;;;;;11.33;10.67;;;;;;;;5003840;28;45990;-79
2024/03/13 03:39:39;;;;;;;;;11.33;9.33;;;;;;;;4985734;28;45275;-79
2024/03/13 03:42:04;;;;;;;;;11.00;10.67;;;;;;;;4985189;28;46403;-80
2024/03/13 03:44:30;;;;;;;;;12.00;11.00;;;;;;;;5004085;28;45391;-79
2024/03/13 03:46:55;;;;;;;;;8.67;8.67;;;;;;;;5006531;28;45189;-79
2024/03/13 03:49:22;;;;;;;;;12.00;10.00;;;;;;;;4986035;28;45401;-79
2024/03/13 03:51:48;;;;;;;;;10.33;9.00;;;;;;;;4985841;28;47380;-79
2024/03/13 03:54:13;;;;;;;;;10.67;9.67;;;;;;;;5004555;28;45317;-79
2024/03/13 03:56:38;;;;;;;;;11.00;10.00;;;;;;;;5005225;28;45254;-80
2024/03/13 03:59:04;;;;;;;;;12.00;10.33;;;;;;;;5025182;28;45660;-79
2024/03/13 04:01:29;;;;;;;;;8.33;8.33;;;;;;;;5025508;28;45523;-79
2024/03/13 04:03:54;;;;;;;;;10.67;8.00;;;;;;;;5025225;28;45340;-79
2024/03/13 04:06:20;;;;;;;;;9.33;9.33;;;;;;;;5008562;28;45845;-79
2024/03/13 04:08:46;;;;;;;;;5.00;4.67;;;;;;;;5025374;28;45223;-80
2024/03/13 04:11:11;;;;;;;;;8.00;7.33;;;;;;;;5014917;28;45389;-79
2024/03/13 04:13:37;;;;;;;;;8.00;7.00;;;;;;;;5004016;28;45304;-79
2024/03/13 04:16:04;;;;;;;;;10.00;10.00;;;;;;;;4986855;28;45318;-79
2024/03/13 04:18:29;;;;;;;;;13.00;9.67;;;;;;;;4987950;28;45304;-79
2024/03/13 04:20:55;;;;;;;;;11.00;10.00;;;;;;;;4986385;28;47018;-79
2024/03/13 04:23:20;;;;;;;;;10.67;8.67;;;;;;;;4988138;28;46979;-79
2024/03/13 04:25:46;;;;;;;;;13.00;9.67;;;;;;;;5004863;28;45418;-80
2024/03/13 04:28:11;;;;;;;;;10.00;9.00;;;;;;;;5004334;28;45255;-79
2024/03/13 04:30:36;;;;;;;;;9.33;9.00;;;;;;;;4986456;28;46416;-79
2024/03/13 04:33:02;;;;;;;;;10.67;8.67;;;;;;;;5006305;28;46054;-79
2024/03/13 04:35:27;;;;;;;;;11.00;10.00;;;;;;;;5007115;28;45243;-79
2024/03/13 04:37:52;;;;;;;;;9.00;9.00;;;;;;;;5006591;28;45301;-80
2024/03/13 04:40:22;;;;;;;;;10.00;10.00;;;;;;;;4987121;28;46104;-80
2024/03/13 04:42:47;;;;;;;;;8.00;6.33;;;;;;;;5003830;28;45317;-79
2024/03/13 04:45:12;;;;;;;;;11.00;9.00;;;;;;;;5006196;28;45266;-79
2024/03/13 04:47:37;;;;;;;;;8.33;8.33;;;;;;;;4993954;28;45334;-80
2024/03/13 04:50:03;;;;;;;;;7.00;7.00;;;;;;;;4985427;28;45327;-79
2024/03/13 04:52:29;;;;;;;;;8.67;7.00;;;;;;;;4965935;28;47125;-79
2024/03/13 04:54:54;;;;;;;;;12.33;11.00;;;;;;;;4983563;28;45448;-79
2024/03/13 04:57:20;;;;;;;;;10.33;9.00;;;;;;;;4989590;28;45496;-79
2024/03/13 04:59:45;;;;;;;;;9.00;8.00;;;;;;;;4985275;28;46764;-79
2024/03/13 05:02:10;;;;;;;;;9.67;9.67;;;;;;;;4986929;28;46556;-80
2024/03/13 05:04:35;;;;;;;;;9.67;9.33;;;;;;;;5005025;28;45236;-79
2024/03/13 05:07:02;;;;;;;;;9.00;9.00;;;;;;;;5003554;28;45310;-79
2024/03/13 05:09:28;;;;;;;;;10.33;10.33;;;;;;;;4986758;28;46283;-79
2024/03/13 05:11:53;;;;;;;;;10.67;8.33;;;;;;;;5003062;28;47167;-79
2024/03/13 05:14:18;;;;;;;;;8.00;8.00;;;;;;;;5024770;28;45339;-79
2024/03/13 05:16:45;;;;;;;;;11.33;9.67;;;;;;;;5025704;28;45438;-79
2024/03/13 05:19:10;;;;;;;;;9.00;8.00;;;;;;;;5026070;28;45683;-80
2024/03/13 05:21:36;;;;;;;;;9.67;9.33;;;;;;;;5022872;28;45167;-79
2024/03/13 05:24:03;;;;;;;;;13.00;10.67;;;;;;;;5025605;28;45238;-80
2024/03/13 05:26:28;;;;;;;;;7.33;7.00;;;;;;;;5024883;28;45202;-79
2024/03/13 05:28:59;;;;;;;;;7.00;7.00;;;;;;;;5006389;28;45933;-80
2024/03/13 05:31:24;;;;;;;;;6.67;6.67;;;;;;;;5007083;28;47168;-79
2024/03/13 05:33:50;;;;;;;;;9.00;9.00;;;;;;;;5004976;28;45726;-79
2024/03/13 05:36:15;;;;;;;;;7.33;5.67;;;;;;;;5023773;28;45371;-80
2024/03/13 05:38:40;;;;;;;;;8.00;7.00;;;;;;;;5005201;28;46798;-79
2024/03/13 05:41:06;;;;;;;;;9.33;9.33;;;;;;;;5005486;28;48188;-79
2024/03/13 05:43:31;;;;;;;;;7.00;7.00;;;;;;;;5023582;28;45277;-79
2024/03/13 05:45:56;;;;;;;;;7.33;6.00;;;;;;;;5006212;28;45412;-80
2024/03/13 05:48:21;;;;;;;;;6.67;6.67;;;;;;;;5010198;28;45416;-79
2024/03/13 05:50:47;;;;;;;;;8.00;8.00;;;;;;;;4984358;28;48419;-79
2024/03/13 05:53:13;;;;;;;;;8.00;7.00;;;;;;;;4985393;28;45575;-80
2024/03/13 05:55:38;;;;;;;;;10.00;7.00;;;;;;;;4991995;28;45300;-79
2024/03/13 05:58:04;;;;;;;;;8.00;6.00;;;;;;;;4998996;28;46138;-79
2024/03/13 06:00:29;;;;;;;;;10.33;9.67;;;;;;;;5006893;28;47568;-80
2024/03/13 06:02:54;;;;;;;;;7.33;6.67;;;;;;;;5024326;28;45327;-79
2024/03/13 06:05:21;;;;;;;;;6.33;6.00;;;;;;;;5023812;28;45168;-80
2024/03/13 06:07:47;;;;;;;;;7.00;5.33;;;;;;;;5024286;28;45496;-79
2024/03/13 06:10:12;;;;;;;;;9.67;7.33;;;;;;;;5023908;28;46041;-78
2024/03/13 06:12:37;;;;;;;;;9.00;7.67;;;;;;;;5004320;28;45304;-79
2024/03/13 06:15:06;;;;;;;;;8.67;7.33;;;;;;;;5024122;28;45304;-79
2024/03/13 06:17:32;;;;;;;;;8.33;8.00;;;;;;;;5024341;28;45348;-80
2024/03/13 06:19:57;;;;;;;;;7.67;7.00;;;;;;;;5004829;28;47433;-79
2024/03/13 06:22:22;;;;;;;;;7.00;7.00;;;;;;;;5023276;28;45191;-79
2024/03/13 06:24:47;;;;;;;;;8.00;7.00;;;;;;;;5023502;28;45252;-79
2024/03/13 06:27:15;;;;;;;;;8.33;7.33;;;;;;;;5022901;28;45518;-80
2024/03/13 06:29:56;;;;;;;;;8.33;6.67;;;;;;;;5023464;28;45339;-79
2024/03/13 06:32:22;;;;;;;;;9.00;9.00;;;;;;;;5004554;28;45788;-79
2024/03/13 06:34:47;;;;;;;;;9.67;9.67;;;;;;;;5005399;28;45361;-79
2024/03/13 06:37:13;;;;;;;;;8.00;8.00;;;;;;;;5005063;28;46094;-79
2024/03/13 06:39:38;;;;;;;;;9.67;8.33;;;;;;;;5025206;28;45316;-79
2024/03/13 06:42:03;;;;;;;;;11.33;9.67;;;;;;;;5008542;28;45396;-79
2024/03/13 06:44:28;;;;;;;;;10.33;9.67;;;;;;;;5007575;28;45506;-79
2024/03/13 06:46:54;;;;;;;;;14.00;12.33;;;;;;;;5024114;28;45171;-80
2024/03/13 06:49:19;;;;;;;;;13.33;12.67;;;;;;;;5022603;28;45310;-79
2024/03/13 06:51:44;;;;;;;;;11.33;8.67;;;;;;;;5022619;28;45254;-79
2024/03/13 06:54:09;;;;;;;;;12.67;10.33;;;;;;;;4991673;28;45531;-79
2024/03/13 06:56:35;;;;;;;;;12.67;11.67;;;;;;;;4985695;28;45902;-79
2024/03/13 06:59:00;;;;;;;;;11.67;10.67;;;;;;;;5003066;28;45470;-79
2024/03/13 07:01:25;;;;;;;;;12.67;11.00;;;;;;;;5001897;28;45319;-79
2024/03/13 07:03:52;;;;;;;;;11.33;10.67;;;;;;;;5001948;28;45279;-79
2024/03/13 07:06:18;;;;;;;;;11.67;10.67;;;;;;;;4983811;28;46214;-79
2024/03/13 07:08:43;;;;;;;;;9.00;9.00;;;;;;;;5002849;28;46129;-79
2024/03/13 07:11:08;;;;;;;;;10.33;8.00;;;;;;;;5004891;28;45292;-79
2024/03/13 07:13:34;;;;;;;;;8.33;8.33;;;;;;;;4985694;28;45327;-78
2024/03/13 07:16:00;;;;;;;;;10.00;8.00;;;;;;;;5002523;28;45411;-79
2024/03/13 07:18:26;;;;;;;;;9.33;8.33;;;;;;;;5002330;28;45655;-78
2024/03/13 07:20:51;;;;;;;;;8.00;7.00;;;;;;;;5002108;28;45379;-79
2024/03/13 07:23:17;;;;;;;;;10.67;9.00;;;;;;;;5003342;28;45494;-79
2024/03/13 07:25:42;;;;;;;;;12.33;11.67;;;;;;;;5009952;28;45340;-79
2024/03/13 07:28:11;;;;;;;;;13.00;11.00;;;;;;;;5007132;28;45284;-79
2024/03/13 07:30:36;;;;;;;;;11.67;9.00;;;;;;;;5002617;28;45376;-79
2024/03/13 07:33:03;;;;;;;;;8.67;8.67;;;;;;;;4986376;28;45344;-79
2024/03/13 07:35:28;;;;;;;;;8.00;8.00;;;;;;;;5005750;28;45294;-80
2024/03/13 07:37:54;;;;;;;;;9.00;9.00;;;;;;;;4987367;28;46632;-79
2024/03/13 07:40:23;;;;;;;;;9.67;8.67;;;;;;;;5002865;28;45502;-78
2024/03/13 07:42:49;;;;;;;;;13.00;10.00;;;;;;;;5002697;28;45407;-80
2024/03/13 07:45:16;;;;;;;;;9.67;9.33;;;;;;;;5001913;28;45464;-79
2024/03/13 07:47:41;;;;;;;;;12.00;12.00;;;;;;;;5001724;28;45546;-78
2024/03/13 07:50:07;;;;;;;;;13.00;11.67;;;;;;;;4984419;28;46145;-78
2024/03/13 07:52:32;;;;;;;;;12.33;11.00;;;;;;;;4985355;28;45317;-77
2024/03/13 07:54:57;;;;;;;;;11.00;11.00;;;;;;;;4986291;28;45882;-79
2024/03/13 07:57:24;;;;;;;;;9.67;9.00;;;;;;;;4992052;28;47464;-76
2024/03/13 07:59:49;;;;;;;;;11.00;11.00;;;;;;;;5003852;28;45404;-77
2024/03/13 08:02:15;;;;;;;;;11.33;10.33;;;;;;;;5021930;28;45364;-77
2024/03/13 08:04:40;;;;;;;;;13.67;13.00;;;;;;;;5005920;28;46275;-77
2024/03/13 08:07:05;;;;;;;;;12.67;12.00;;;;;;;;5022256;28;45383;-77
2024/03/13 08:09:31;;;;;;;;;11.00;11.00;;;;;;;;5022612;28;45318;-77
2024/03/13 08:11:57;;;;;;;;;12.67;10.67;;;;;;;;5022965;28;45337;-76
2024/03/13 08:14:22;;;;;;;;;11.33;11.33;;;;;;;;5024058;28;45295;-76
2024/03/13 08:16:48;;;;;;;;;11.33;11.33;;;;;;;;5004874;28;48370;-76
2024/03/13 08:19:13;;;;;;;;;13.33;13.33;;;;;;;;5021870;28;45262;-77
2024/03/13 08:21:38;;;;;;;;;11.00;9.67;;;;;;;;5004143;28;45507;-77
2024/03/13 08:24:03;;;;;;;;;12.00;12.00;;;;;;;;5022488;28;45557;-76
2024/03/13 08:26:28;;;;;;;;;9.00;9.00;;;;;;;;5023061;28;45277;-77
2024/03/13 08:28:54;;;;;;;;;14.00;12.00;;;;;;;;4990316;28;45431;-76
2024/03/13 08:31:19;;;;;;;;;13.33;12.33;;;;;;;;5001370;28;45364;-77
2024/03/13 08:33:44;;;;;;;;;9.33;9.33;;;;;;;;5001292;28;45594;-76
2024/03/13 08:36:10;;;;;;;;;10.00;10.00;;;;;;;;5002122;28;46146;-78
2024/03/13 08:38:35;;;;;;;;;9.67;8.33;;;;;;;;5002999;28;45253;-77
2024/03/13 08:41:00;;;;;;;;;11.33;10.00;;;;;;;;5002475;28;45207;-77
2024/03/13 08:43:26;;;;;;;;;10.00;9.00;;;;;;;;4983001;28;47268;-78
2024/03/13 08:45:52;;;;;;;;;6.67;6.00;;;;;;;;5000720;28;45711;-77
2024/03/13 08:48:17;;;;;;;;;10.33;8.33;;;;;;;;5005586;28;45246;-77
2024/03/13 08:50:43;;;;;;;;;10.00;9.33;;;;;;;;5007056;28;45605;-77
2024/03/13 08:53:08;;;;;;;;;9.33;9.33;;;;;;;;5003745;28;45410;-77
2024/03/13 08:55:34;;;;;;;;;10.00;8.33;;;;;;;;4987053;28;47145;-76
2024/03/13 08:58:03;;;;;;;;;11.33;8.33;;;;;;;;5019247;28;45416;-77
2024/03/13 09:00:28;;;;;;;;;7.33;7.00;;;;;;;;5025560;28;45316;-77
2024/03/13 09:02:56;;;;;;;;;7.33;7.00;;;;;;;;5002227;28;47447;-77
2024/03/13 09:05:22;;;;;;;;;9.67;9.00;;;;;;;;4986838;28;48057;-77
2024/03/13 09:07:47;;;;;;;;;5.33;5.33;;;;;;;;5004633;28;45351;-77
2024/03/13 09:10:12;;;;;;;;;7.33;7.00;;;;;;;;5004510;28;45294;-77
2024/03/13 09:12:38;;;;;;;;;6.00;6.00;;;;;;;;5007774;28;45483;-77
2024/03/13 09:15:03;;;;;;;;;12.00;8.33;;;;;;;;5004569;28;45924;-77
2024/03/13 09:17:28;;;;;;;;;8.00;6.67;;;;;;;;4988563;28;45314;-77
2024/03/13 09:19:53;;;;;;;;;7.33;5.33;;;;;;;;5001347;28;45763;-78
2024/03/13 09:22:19;;;;;;;;;5.33;5.33;;;;;;;;4986670;28;47536;-76
2024/03/13 09:24:44;;;;;;;;;7.67;5.67;;;;;;;;5005235;28;46053;-76
2024/03/13 09:27:09;;;;;;;;;10.33;8.67;;;;;;;;5020968;28;45516;-77
2024/03/13 09:29:34;;;;;;;;;5.00;5.00;;;;;;;;5023651;28;45379;-77
2024/03/13 09:32:00;;;;;;;;;4.33;4.33;;;;;;;;5007084;28;45412;-76
2024/03/13 09:34:25;;;;;;;;;7.00;7.00;;;;;;;;4983116;28;47426;-78
2024/03/13 09:36:50;;;;;;;;;3.67;3.67;;;;;;;;5003496;28;45310;-77
2024/03/13 09:39:15;;;;;;;;;6.00;5.00;;;;;;;;5009895;28;45345;-77
2024/03/13 09:41:41;;;;;;;;;7.00;5.00;;;;;;;;5004374;28;46336;-79
2024/03/13 09:44:06;;;;;;;;;3.33;3.33;;;;;;;;5004981;28;48239;-78
2024/03/13 09:46:32;;;;;;;;;5.00;5.00;;;;;;;;5006977;28;45345;-78
2024/03/13 09:48:59;;;;;;;;;4.33;3.33;;;;;;;;5020472;28;45296;-79
2024/03/13 09:51:24;;;;;;;;;2.67;2.67;;;;;;;;5002228;28;46087;-78
2024/03/13 09:53:50;;;;;;;;;3.33;3.33;;;;;;;;5004723;28;46527;-77
2024/03/13 09:56:17;;;;;;;;;4.67;4.00;;;;;;;;4983860;28;45331;-79
2024/03/13 09:58:45;;;;;;;;;3.67;3.67;;;;;;;;5020350;28;45447;-80
2024/03/13 10:01:14;;;;;;;;;6.67;6.00;;;;;;;;5020489;28;45470;-78
2024/03/13 10:03:42;;;;;;;;;3.00;3.00;;;;;;;;5023572;28;47793;-78
2024/03/13 10:06:12;;;;;;;;;4.67;4.67;;;;;;;;5001736;28;45362;-78
2024/03/13 10:08:42;;;;;;;;;3.33;2.00;;;;;;;;5006937;28;45359;-76
2024/03/13 10:11:09;;;;;;;;;3.67;2.33;;;;;;;;5023923;28;45439;-76
2024/03/13 10:13:37;;;;;;;;;4.33;4.33;;;;;;;;5026992;28;46059;-76
2024/03/13 10:16:03;;;;;;;;;4.00;4.00;;;;;;;;5027075;28;45344;-77
2024/03/13 10:18:29;;;;;;;;;2.50;2.50;;;;;;;;5015417;28;45349;-77
2024/03/13 10:21:06;;;;;;;;;3.00;3.00;;;;;;;;5027784;28;45290;-77
2024/03/13 10:23:33;;;;;;;;;4.00;2.75;;;;;;;;5004267;28;47429;-77
2024/03/13 10:25:59;;;;;;;;;2.75;2.75;;;;;;;;5004848;28;45299;-77
2024/03/13 10:28:29;;;;;;;;;2.00;1.75;;;;;;;;4983100;28;45400;-77
2024/03/13 10:30:57;;;;;;;;;4.00;4.00;;;;;;;;4998942;28;45461;-78
2024/03/13 10:33:22;;;;;;;;;2.00;2.00;;;;;;;;4982576;28;48278;-77
2024/03/13 10:35:47;;;;;;;;;1.50;1.00;;;;;;;;4999831;28;45274;-77
2024/03/13 10:38:14;;;;;;;;;0.00;0.00;;;;;;;;5000608;28;45477;-77
2024/03/13 10:40:40;;;;;;;;;0.75;0.75;;;;;;;;5000995;28;45334;-77
2024/03/13 10:43:06;;;;;;;;;0.00;0.00;;;;;;;;5002009;28;45379;-78
2024/03/13 10:45:31;;;;;;;;;0.00;0.00;;;;;;;;4985496;28;45430;-78
2024/03/13 10:47:57;;;;;;;;;2.00;2.00;;;;;;;;4983424;28;45468;-77
2024/03/13 10:50:22;;;;;;;;;1.00;1.00;;;;;;;;4987329;28;45293;-77
2024/03/13 10:52:47;;;;;;;;;0.00;0.00;;;;;;;;4980086;28;47379;-77
2024/03/13 10:55:12;;;;;;;;;0.00;0.00;;;;;;;;4999198;28;45312;-78
2024/03/13 10:57:38;;;;;;;;;1.00;1.00;;;;;;;;4986832;28;45398;-78
2024/03/13 11:00:17;;;;;;;;;1.25;1.25;;;;;;;;4999351;28;45460;-79
2024/03/13 11:02:42;;;;;;;;;1.00;1.00;;;;;;;;4999255;28;45364;-79
2024/03/13 11:05:11;;;;;;;;;2.00;2.00;;;;;;;;4999322;28;45273;-78
2024/03/13 11:07:36;;;;;;;;;0.75;0.75;;;;;;;;4999230;28;45391;-79
2024/03/13 11:10:01;;;;;;;;;0.75;0.75;;;;;;;;4999338;28;45313;-80
2024/03/13 11:12:27;;;;;;;;;2.75;2.00;;;;;;;;4981892;28;48081;-79
2024/03/13 11:14:53;;;;;;;;;0.00;0.00;;;;;;;;4999577;28;45295;-78
2024/03/13 11:17:22;;;;;;;;;0.00;0.00;;;;;;;;4999882;28;45191;-78
2024/03/13 11:19:51;;;;;;;;;0.25;0.25;;;;;;;;4999940;28;45321;-78
2024/03/13 11:22:17;;;;;;;;;0.00;0.00;;;;;;;;4999365;28;45287;-79
2024/03/13 11:24:42;;;;;;;;;0.50;0.50;;;;;;;;4984346;28;45912;-79
2024/03/13 11:27:20;;;;;;;;;0.00;0.00;;;;;;;;4985414;28;45360;-78
2024/03/13 11:29:49;;;;;;;;;0.00;0.00;;;;;;;;5003034;28;45246;-78
2024/03/13 11:32:14;;;;;;;;;0.00;0.00;;;;;;;;5002265;28;46009;-78
2024/03/13 11:34:40;;;;;;;;;0.00;0.00;;;;;;;;4984907;28;45334;-79
2024/03/13 11:37:09;;;;;;;;;0.25;0.25;;;;;;;;5002634;28;45393;-78
2024/03/13 11:39:34;;;;;;;;;0.00;0.00;;;;;;;;5002472;28;45456;-79
2024/03/13 11:42:16;;;;;;;;;0.50;0.50;;;;;;;;5002340;28;45316;-79
2024/03/13 11:44:42;;;;;;;;;0.50;0.50;;;;;;;;5002130;28;45383;-79
2024/03/13 11:47:11;;;;;;;;;1.50;1.50;;;;;;;;5002216;28;45408;-79
2024/03/13 11:49:37;;;;;;;;;1.00;1.00;;;;;;;;4980697;28;45481;-77
2024/03/13 11:52:03;;;;;;;;;2.00;2.00;;;;;;;;5009028;28;45393;-78
2024/03/13 11:54:32;;;;;;;;;0.75;0.75;;;;;;;;5000682;28;45450;-79
2024/03/13 11:57:03;;;;;;;;;2.50;2.50;;;;;;;;4999659;28;45349;-77
2024/03/13 11:59:50;;;;;;;;;3.00;3.00;;;;;;;;4996623;28;45519;-79
2024/03/13 12:02:27;;;;;;;;;2.00;2.00;;;;;;;;4983421;28;47522;-79
2024/03/13 12:04:54;;;;;;;;;2.00;2.00;;;;;;;;5001243;28;45393;-77
2024/03/13 12:07:19;;;;;;;;;0.00;0.00;;;;;;;;4999035;28;45118;-78
2024/03/13 12:09:44;;;;;;;;;1.00;0.00;;;;;;;;5019850;28;45486;-78
2024/03/13 12:12:13;;;;;;;;;0.00;0.00;;;;;;;;5020919;28;45557;-78
2024/03/13 12:14:38;;;;;;;;;0.75;0.75;;;;;;;;4998970;28;45873;-77
2024/03/13 12:17:05;;;;;;;;;0.00;0.00;;;;;;;;4999678;28;45422;-78
2024/03/13 12:19:30;;;;;;;;;0.00;0.00;;;;;;;;5001112;28;45301;-77
2024/03/13 12:21:57;;;;;;;;;1.50;1.00;;;;;;;;4999895;28;46555;-78
2024/03/13 12:24:22;;;;;;;;;1.00;1.00;;;;;;;;5001289;28;45683;-77
2024/03/13 12:26:49;;;;;;;;;0.00;0.00;;;;;;;;5000999;28;45489;-78
2024/03/13 12:29:16;;;;;;;;;0.00;0.00;;;;;;;;5002054;28;45163;-78
2024/03/13 12:31:42;;;;;;;;;0.25;0.25;;;;;;;;5001664;28;45281;-77
2024/03/13 12:34:10;;;;;;;;;0.00;0.00;;;;;;;;4984140;28;45373;-77
2024/03/13 12:36:44;;;;;;;;;0.00;0.00;;;;;;;;5001498;28;45319;-78
2024/03/13 12:39:10;;;;;;;;;0.00;0.00;;;;;;;;4984939;28;45946;-78
2024/03/13 12:41:35;;;;;;;;;0.00;0.00;;;;;;;;5003395;28;45306;-77
2024/03/13 12:44:03;;;;;;;;;0.00;0.00;;;;;;;;5001758;28;45521;-78
2024/03/13 12:46:28;;;;;;;;;0.00;0.00;;;;;;;;5002528;28;45507;-77
2024/03/13 12:48:54;;;;;;;;;0.00;0.00;;;;;;;;4983652;28;47163;-77
2024/03/13 12:51:20;;;;;;;;;0.00;0.00;;;;;;;;5001356;28;45352;-77
2024/03/13 12:53:46;;;;;;;;;0.00;0.00;;;;;;;;4983343;28;45320;-78
2024/03/13 12:56:11;;;;;;;;;0.00;0.00;;;;;;;;4982752;28;45354;-78
2024/03/13 12:58:36;;;;;;;;;1.75;0.00;;;;;;;;5001011;28;46451;-77
2024/03/13 13:01:02;;;;;;;;;0.25;0.25;;;;;;;;5021691;28;45419;-77
2024/03/13 13:03:27;;;;;;;;;0.00;0.00;;;;;;;;5003936;28;45798;-78
2024/03/13 13:05:52;;;;;;;;;0.00;0.00;;;;;;;;5001772;28;45428;-78
2024/03/13 13:08:21;;;;;;;;;0.50;0.50;;;;;;;;4995305;28;45916;-78
2024/03/13 13:10:49;;;;;;;;;1.00;1.00;;;;;;;;5004538;28;46242;-79
2024/03/13 13:13:15;;;;;;;;;0.00;0.00;;;;;;;;5000639;28;45314;-78
2024/03/13 13:15:41;;;;;;;;;0.75;0.75;;;;;;;;4983189;28;45283;-78
2024/03/13 13:18:06;;;;;;;;;0.00;0.00;;;;;;;;5001461;28;45430;-78
2024/03/13 13:20:33;;;;;;;;;1.00;0.00;;;;;;;;5000817;28;46433;-77
2024/03/13 13:22:58;;;;;;;;;1.00;1.00;;;;;;;;5001110;28;45397;-78
2024/03/13 13:25:26;;;;;;;;;0.00;0.00;;;;;;;;4983671;28;45888;-78
2024/03/13 13:27:54;;;;;;;;;0.75;0.00;;;;;;;;5001091;28;45296;-79
2024/03/13 13:30:19;;;;;;;;;1.25;1.25;;;;;;;;5000852;28;46115;-79
2024/03/13 13:32:44;;;;;;;;;1.00;1.00;;;;;;;;4998196;28;45212;-79
2024/03/13 13:35:10;;;;;;;;;0.50;0.00;;;;;;;;4996013;28;45311;-80
2024/03/13 13:37:36;;;;;;;;;1.25;1.00;;;;;;;;4977536;28;46100;-78
2024/03/13 13:40:07;;;;;;;;;0.00;0.00;;;;;;;;4998131;28;46017;-79
2024/03/13 13:42:32;;;;;;;;;0.00;0.00;;;;;;;;5001056;28;45304;-78
2024/03/13 13:44:57;;;;;;;;;0.00;0.00;;;;;;;;5000824;28;45618;-78
2024/03/13 13:47:23;;;;;;;;;0.00;0.00;;;;;;;;4981455;28;47023;-78
2024/03/13 13:49:48;;;;;;;;;1.00;0.00;;;;;;;;5000704;28;45876;-78
2024/03/13 13:52:16;;;;;;;;;0.75;0.00;;;;;;;;5000829;28;45266;-78
2024/03/13 13:54:41;;;;;;;;;1.00;1.00;;;;;;;;5001185;28;45219;-78
2024/03/13 13:57:08;;;;;;;;;1.00;1.00;;;;;;;;5006250;28;45308;-79
2024/03/13 13:59:33;;;;;;;;;0.00;0.00;;;;;;;;5021123;28;46021;-78
2024/03/13 14:01:58;;;;;;;;;0.00;0.00;;;;;;;;5020319;28;45370;-78
2024/03/13 14:04:23;;;;;;;;;0.00;0.00;;;;;;;;5020858;28;45353;-78
2024/03/13 14:06:49;;;;;;;;;0.00;0.00;;;;;;;;5020890;28;45329;-78
2024/03/13 14:09:16;;;;;;;;;0.00;0.00;;;;;;;;5002697;28;48553;-78
2024/03/13 14:11:42;;;;;;;;;0.00;0.00;;;;;;;;5002492;28;45778;-78
2024/03/13 14:14:08;;;;;;;;;0.00;0.00;;;;;;;;5020942;28;45232;-78
2024/03/13 14:16:35;;;;;;;;;0.75;0.75;;;;;;;;5020958;28;45531;-78
2024/03/13 14:19:01;;;;;;;;;0.00;0.00;;;;;;;;5020166;28;45157;-78
2024/03/13 14:21:26;;;;;;;;;4.00;4.00;;;;;;;;5019781;28;45166;-78
2024/03/13 14:23:51;;;;;;;;;0.75;0.75;;;;;;;;5019943;28;45458;-79
2024/03/13 14:26:16;;;;;;;;;2.75;2.75;;;;;;;;5020241;28;45444;-78
2024/03/13 14:28:46;;;;;;;;;3.75;3.50;;;;;;;;5002113;28;47205;-78
2024/03/13 14:31:12;;;;;;;;;1.00;1.00;;;;;;;;5020559;28;45370;-78
2024/03/13 14:33:37;;;;;;;;;2.00;2.00;;;;;;;;5019984;28;45258;-79
2024/03/13 14:36:02;;;;;;;;;3.75;3.75;;;;;;;;5020375;28;45493;-78
2024/03/13 14:38:27;;;;;;;;;6.00;6.00;;;;;;;;5019568;28;45255;-78
2024/03/13 14:40:52;;;;;;;;;8.00;7.00;;;;;;;;5001516;28;45312;-77
2024/03/13 14:43:18;;;;;;;;;1.00;1.00;;;;;;;;5002121;28;45361;-78